sensor_id;sensor_type;location;lat;lon;timestamp;temperature;humidity
37998;DHT22;24079;51.824;4.682;2023-01-29T00:01:59;4.90;99.90
37998;DHT22;24079;51.824;4.682;2023-01-29T00:04:24;4.90;99.90
37998;DHT22;24079;51.824;4.682;2023-01-29T00:06:50;4.90;99.90
37998;DHT22;24079;51.824;4.682;2023-01-29T00:09:16;4.90;99.90
37998;DHT22;24079;51.824;4.682;2023-01-29T00:11:41;4.80;99.90
37998;DHT22;24079;51.824;4.682;2023-01-29T00:14:08;4.90;99.90
37998;DHT22;24079;51.824;4.682;2023-01-29T00:16:33;4.90;99.90
37998;DHT22;24079;51.824;4.682;2023-01-29T00:19:00;5.00;99.90
37998;DHT22;24079;51.824;4.682;2023-01-29T00:21:27;5.00;99.90
37998;DHT22;24079;51.824;4.682;2023-01-29T00:23:55;5.00;99.90
37998;DHT22;24079;51.824;4.682;2023-01-29T00:26:21;4.80;99.90
37998;DHT22;24079;51.824;4.682;2023-01-29T00:28:47;4.80;99.90
37998;DHT22;24079;51.824;4.682;2023-01-29T00:31:21;4.80;99.90
37998;DHT22;24079;51.824;4.682;2023-01-29T00:33:48;4.80;99.90
37998;DHT22;24079;51.824;4.682;2023-01-29T00:36:15;4.90;99.90
37998;DHT22;24079;51.824;4.682;2023-01-29T00:38:41;4.80;99.90
37998;DHT22;24079;51.824;4.682;2023-01-29T00:41:14;4.80;99.90
37998;DHT22;24079;51.824;4.682;2023-01-29T00:43:59;4.70;99.90
37998;DHT22;24079;51.824;4.682;2023-01-29T00:46:44;4.90;99.90
37998;DHT22;24079;51.824;4.682;2023-01-29T00:49:10;4.90;99.90
37998;DHT22;24079;51.824;4.682;2023-01-29T00:51:36;4.80;99.90
37998;DHT22;24079;51.824;4.682;2023-01-29T00:54:02;4.80;99.90
37998;DHT22;24079;51.824;4.682;2023-01-29T00:56:32;4.90;99.90
37998;DHT22;24079;51.824;4.682;2023-01-29T00:58:58;4.90;99.90
37998;DHT22;24079;51.824;4.682;2023-01-29T01:01:24;5.00;99.90
37998;DHT22;24079;51.824;4.682;2023-01-29T01:04:09;4.90;99.90
37998;DHT22;24079;51.824;4.682;2023-01-29T01:06:37;5.00;99.90
37998;DHT22;24079;51.824;4.682;2023-01-29T01:09:06;5.00;99.90
37998;DHT22;24079;51.824;4.682;2023-01-29T01:12:07;4.90;99.90
37998;DHT22;24079;51.824;4.682;2023-01-29T01:14:33;4.90;99.90
37998;DHT22;24079;51.824;4.682;2023-01-29T01:17:00;4.90;99.90
37998;DHT22;24079;51.824;4.682;2023-01-29T01:19:26;4.80;99.90
37998;DHT22;24079;51.824;4.682;2023-01-29T01:21:52;4.80;99.90
37998;DHT22;24079;51.824;4.682;2023-01-29T01:24:17;4.70;99.90
37998;DHT22;24079;51.824;4.682;2023-01-29T01:26:44;4.70;99.90
37998;DHT22;24079;51.824;4.682;2023-01-29T01:29:10;4.90;99.90
37998;DHT22;24079;51.824;4.682;2023-01-29T01:31:36;4.90;99.90
37998;DHT22;24079;51.824;4.682;2023-01-29T01:34:02;4.90;99.90
37998;DHT22;24079;51.824;4.682;2023-01-29T01:36:27;4.90;99.90
37998;DHT22;24079;51.824;4.682;2023-01-29T01:38:53;5.00;99.90
37998;DHT22;24079;51.824;4.682;2023-01-29T01:41:21;4.90;99.90
37998;DHT22;24079;51.824;4.682;2023-01-29T01:43:51;4.90;99.90
37998;DHT22;24079;51.824;4.682;2023-01-29T01:46:17;5.00;99.90
37998;DHT22;24079;51.824;4.682;2023-01-29T01:48:44;4.90;99.90
37998;DHT22;24079;51.824;4.682;2023-01-29T01:51:11;4.90;99.90
37998;DHT22;24079;51.824;4.682;2023-01-29T01:53:44;4.90;99.90
37998;DHT22;24079;51.824;4.682;2023-01-29T01:56:20;4.80;99.90
37998;DHT22;24079;51.824;4.682;2023-01-29T01:58:55;4.70;99.90
37998;DHT22;24079;51.824;4.682;2023-01-29T02:01:23;4.80;99.90
37998;DHT22;24079;51.824;4.682;2023-01-29T02:06:44;4.80;99.90
37998;DHT22;24079;51.824;4.682;2023-01-29T02:09:33;4.80;99.90
37998;DHT22;24079;51.824;4.682;2023-01-29T02:12:09;4.70;99.90
37998;DHT22;24079;51.824;4.682;2023-01-29T02:14:36;4.80;99.90
37998;DHT22;24079;51.824;4.682;2023-01-29T02:17:07;4.80;99.90
37998;DHT22;24079;51.824;4.682;2023-01-29T02:33:57;4.90;99.90
37998;DHT22;24079;51.824;4.682;2023-01-29T02:36:46;4.80;99.90
37998;DHT22;24079;51.824;4.682;2023-01-29T02:41:54;4.90;99.90
37998;DHT22;24079;51.824;4.682;2023-01-29T02:44:34;4.80;99.90
37998;DHT22;24079;51.824;4.682;2023-01-29T02:47:09;4.70;99.90
37998;DHT22;24079;51.824;4.682;2023-01-29T02:49:48;4.70;99.90
37998;DHT22;24079;51.824;4.682;2023-01-29T02:54:59;4.70;99.90
37998;DHT22;24079;51.824;4.682;2023-01-29T02:57:30;4.70;99.90
37998;DHT22;24079;51.824;4.682;2023-01-29T03:00:02;4.70;99.90
37998;DHT22;24079;51.824;4.682;2023-01-29T03:02:56;4.60;99.90
37998;DHT22;24079;51.824;4.682;2023-01-29T03:05:28;4.60;99.90
37998;DHT22;24079;51.824;4.682;2023-01-29T03:07:59;4.60;99.90
37998;DHT22;24079;51.824;4.682;2023-01-29T03:10:46;4.60;99.90
37998;DHT22;24079;51.824;4.682;2023-01-29T03:15:47;4.50;99.90
37998;DHT22;24079;51.824;4.682;2023-01-29T03:18:21;4.60;99.90
37998;DHT22;24079;51.824;4.682;2023-01-29T03:20:54;4.70;99.90
37998;DHT22;24079;51.824;4.682;2023-01-29T03:23:32;4.70;99.90
37998;DHT22;24079;51.824;4.682;2023-01-29T03:26:19;4.70;99.90
37998;DHT22;24079;51.824;4.682;2023-01-29T03:29:05;4.70;99.90
37998;DHT22;24079;51.824;4.682;2023-01-29T03:31:52;4.70;99.90
37998;DHT22;24079;51.824;4.682;2023-01-29T03:34:41;4.60;99.90
37998;DHT22;24079;51.824;4.682;2023-01-29T03:40:01;4.60;99.90
37998;DHT22;24079;51.824;4.682;2023-01-29T03:47:38;4.50;99.90
37998;DHT22;24079;51.824;4.682;2023-01-29T03:52:48;4.60;99.90
37998;DHT22;24079;51.824;4.682;2023-01-29T03:55:29;4.60;99.90
37998;DHT22;24079;51.824;4.682;2023-01-29T04:00:53;4.60;99.90
37998;DHT22;24079;51.824;4.682;2023-01-29T04:03:25;4.50;99.90
37998;DHT22;24079;51.824;4.682;2023-01-29T04:06:03;4.50;99.90
37998;DHT22;24079;51.824;4.682;2023-01-29T04:08:44;4.60;99.90
37998;DHT22;24079;51.824;4.682;2023-01-29T04:11:14;4.60;99.90
37998;DHT22;24079;51.824;4.682;2023-01-29T04:13:42;4.60;99.90
37998;DHT22;24079;51.824;4.682;2023-01-29T04:16:12;4.60;99.90
37998;DHT22;24079;51.824;4.682;2023-01-29T04:18:39;4.60;99.90
37998;DHT22;24079;51.824;4.682;2023-01-29T04:21:04;4.60;99.90
37998;DHT22;24079;51.824;4.682;2023-01-29T04:23:33;4.50;99.90
37998;DHT22;24079;51.824;4.682;2023-01-29T04:26:07;4.50;99.90
37998;DHT22;24079;51.824;4.682;2023-01-29T04:31:09;4.50;99.90
37998;DHT22;24079;51.824;4.682;2023-01-29T04:34:10;4.50;99.90
37998;DHT22;24079;51.824;4.682;2023-01-29T04:36:50;4.50;99.90
37998;DHT22;24079;51.824;4.682;2023-01-29T04:39:48;4.50;99.90
37998;DHT22;24079;51.824;4.682;2023-01-29T04:42:35;4.50;99.90
37998;DHT22;24079;51.824;4.682;2023-01-29T04:45:21;4.50;99.90
37998;DHT22;24079;51.824;4.682;2023-01-29T04:50:45;4.50;99.90
37998;DHT22;24079;51.824;4.682;2023-01-29T04:53:23;4.40;99.90
37998;DHT22;24079;51.824;4.682;2023-01-29T04:56:10;4.40;99.90
37998;DHT22;24079;51.824;4.682;2023-01-29T04:58:51;4.50;99.90
37998;DHT22;24079;51.824;4.682;2023-01-29T05:01:20;4.50;99.90
37998;DHT22;24079;51.824;4.682;2023-01-29T05:03:51;4.40;99.90
37998;DHT22;24079;51.824;4.682;2023-01-29T05:06:20;4.40;99.90
37998;DHT22;24079;51.824;4.682;2023-01-29T05:08:46;4.40;99.90
37998;DHT22;24079;51.824;4.682;2023-01-29T05:11:14;4.40;99.90
37998;DHT22;24079;51.824;4.682;2023-01-29T05:13:42;4.50;99.90
37998;DHT22;24079;51.824;4.682;2023-01-29T05:18:33;4.40;99.90
37998;DHT22;24079;51.824;4.682;2023-01-29T05:21:02;4.40;99.90
37998;DHT22;24079;51.824;4.682;2023-01-29T05:23:29;4.40;99.90
37998;DHT22;24079;51.824;4.682;2023-01-29T05:25:55;4.40;99.90
37998;DHT22;24079;51.824;4.682;2023-01-29T05:28:21;4.40;99.90
37998;DHT22;24079;51.824;4.682;2023-01-29T05:30:49;4.40;99.90
37998;DHT22;24079;51.824;4.682;2023-01-29T05:33:21;4.30;99.90
37998;DHT22;24079;51.824;4.682;2023-01-29T05:35:48;4.30;99.90
37998;DHT22;24079;51.824;4.682;2023-01-29T05:38:15;4.30;99.90
37998;DHT22;24079;51.824;4.682;2023-01-29T05:40:42;4.40;99.90
37998;DHT22;24079;51.824;4.682;2023-01-29T05:43:19;4.30;99.90
37998;DHT22;24079;51.824;4.682;2023-01-29T05:46:03;4.40;99.90
37998;DHT22;24079;51.824;4.682;2023-01-29T05:48:29;4.40;99.90
37998;DHT22;24079;51.824;4.682;2023-01-29T05:51:00;4.40;99.90
37998;DHT22;24079;51.824;4.682;2023-01-29T05:53:28;4.50;99.90
37998;DHT22;24079;51.824;4.682;2023-01-29T05:55:54;4.40;99.90
37998;DHT22;24079;51.824;4.682;2023-01-29T05:58:22;4.40;99.90
37998;DHT22;24079;51.824;4.682;2023-01-29T06:00:48;4.40;99.90
37998;DHT22;24079;51.824;4.682;2023-01-29T06:03:14;4.40;99.90
37998;DHT22;24079;51.824;4.682;2023-01-29T06:05:40;4.40;99.90
37998;DHT22;24079;51.824;4.682;2023-01-29T06:08:07;4.50;99.90
37998;DHT22;24079;51.824;4.682;2023-01-29T06:10:33;4.50;99.90
37998;DHT22;24079;51.824;4.682;2023-01-29T06:12:59;4.50;99.90
37998;DHT22;24079;51.824;4.682;2023-01-29T06:15:25;4.50;99.90
37998;DHT22;24079;51.824;4.682;2023-01-29T06:17:56;4.50;99.90
37998;DHT22;24079;51.824;4.682;2023-01-29T06:20:22;4.50;99.90
37998;DHT22;24079;51.824;4.682;2023-01-29T06:22:48;4.40;99.90
37998;DHT22;24079;51.824;4.682;2023-01-29T06:25:14;4.40;99.90
37998;DHT22;24079;51.824;4.682;2023-01-29T06:27:40;4.40;99.90
37998;DHT22;24079;51.824;4.682;2023-01-29T06:30:06;4.50;99.90
37998;DHT22;24079;51.824;4.682;2023-01-29T06:32:33;4.30;99.90
37998;DHT22;24079;51.824;4.682;2023-01-29T06:34:59;4.40;99.90
37998;DHT22;24079;51.824;4.682;2023-01-29T06:37:24;4.50;99.90
37998;DHT22;24079;51.824;4.682;2023-01-29T06:39:50;4.50;99.90
37998;DHT22;24079;51.824;4.682;2023-01-29T06:42:16;4.50;99.90
37998;DHT22;24079;51.824;4.682;2023-01-29T06:44:43;4.50;99.90
37998;DHT22;24079;51.824;4.682;2023-01-29T06:47:09;4.50;99.90
37998;DHT22;24079;51.824;4.682;2023-01-29T06:49:35;4.40;99.90
37998;DHT22;24079;51.824;4.682;2023-01-29T06:52:01;4.50;99.90
37998;DHT22;24079;51.824;4.682;2023-01-29T06:54:27;4.50;99.90
37998;DHT22;24079;51.824;4.682;2023-01-29T06:56:54;4.50;99.90
37998;DHT22;24079;51.824;4.682;2023-01-29T06:59:21;4.50;99.90
37998;DHT22;24079;51.824;4.682;2023-01-29T07:01:47;4.40;99.90
37998;DHT22;24079;51.824;4.682;2023-01-29T07:04:13;4.40;99.90
37998;DHT22;24079;51.824;4.682;2023-01-29T07:06:39;4.40;99.90
37998;DHT22;24079;51.824;4.682;2023-01-29T07:09:05;4.50;99.90
37998;DHT22;24079;51.824;4.682;2023-01-29T07:11:33;4.50;99.90
37998;DHT22;24079;51.824;4.682;2023-01-29T07:13:59;4.40;99.90
37998;DHT22;24079;51.824;4.682;2023-01-29T07:16:25;4.40;99.90
37998;DHT22;24079;51.824;4.682;2023-01-29T07:18:51;4.40;99.90
37998;DHT22;24079;51.824;4.682;2023-01-29T07:21:17;4.50;99.90
37998;DHT22;24079;51.824;4.682;2023-01-29T07:23:43;4.40;99.90
37998;DHT22;24079;51.824;4.682;2023-01-29T07:26:09;4.40;99.90
37998;DHT22;24079;51.824;4.682;2023-01-29T07:28:37;4.40;99.90
37998;DHT22;24079;51.824;4.682;2023-01-29T07:31:04;4.40;99.90
37998;DHT22;24079;51.824;4.682;2023-01-29T07:33:30;4.40;99.90
37998;DHT22;24079;51.824;4.682;2023-01-29T07:35:56;4.40;99.90
37998;DHT22;24079;51.824;4.682;2023-01-29T07:38:22;4.50;99.90
37998;DHT22;24079;51.824;4.682;2023-01-29T07:40:48;4.40;99.90
37998;DHT22;24079;51.824;4.682;2023-01-29T07:43:15;4.50;99.90
37998;DHT22;24079;51.824;4.682;2023-01-29T07:45:41;4.50;99.90
37998;DHT22;24079;51.824;4.682;2023-01-29T07:48:10;4.50;99.90
37998;DHT22;24079;51.824;4.682;2023-01-29T07:50:37;4.40;99.90
37998;DHT22;24079;51.824;4.682;2023-01-29T07:53:04;4.40;99.90
37998;DHT22;24079;51.824;4.682;2023-01-29T07:55:31;4.50;99.90
37998;DHT22;24079;51.824;4.682;2023-01-29T07:58:01;4.50;99.90
37998;DHT22;24079;51.824;4.682;2023-01-29T08:00:29;4.50;99.90
37998;DHT22;24079;51.824;4.682;2023-01-29T08:03:05;4.50;99.90
37998;DHT22;24079;51.824;4.682;2023-01-29T08:05:32;4.50;99.90
37998;DHT22;24079;51.824;4.682;2023-01-29T08:07:58;4.50;99.90
37998;DHT22;24079;51.824;4.682;2023-01-29T08:10:24;4.50;99.90
37998;DHT22;24079;51.824;4.682;2023-01-29T08:12:58;4.50;99.90
37998;DHT22;24079;51.824;4.682;2023-01-29T08:15:25;4.50;99.90
37998;DHT22;24079;51.824;4.682;2023-01-29T08:17:51;4.50;99.90
37998;DHT22;24079;51.824;4.682;2023-01-29T08:20:18;4.40;99.90
37998;DHT22;24079;51.824;4.682;2023-01-29T08:22:44;4.40;99.90
37998;DHT22;24079;51.824;4.682;2023-01-29T08:25:11;4.50;99.90
37998;DHT22;24079;51.824;4.682;2023-01-29T08:27:37;4.40;99.90
37998;DHT22;24079;51.824;4.682;2023-01-29T08:30:04;4.50;99.90
37998;DHT22;24079;51.824;4.682;2023-01-29T08:32:30;4.50;99.90
37998;DHT22;24079;51.824;4.682;2023-01-29T08:34:56;4.50;99.90
37998;DHT22;24079;51.824;4.682;2023-01-29T08:37:22;4.50;99.90
37998;DHT22;24079;51.824;4.682;2023-01-29T08:39:47;4.50;99.90
37998;DHT22;24079;51.824;4.682;2023-01-29T08:42:13;4.60;99.90
37998;DHT22;24079;51.824;4.682;2023-01-29T08:44:39;4.50;99.90
37998;DHT22;24079;51.824;4.682;2023-01-29T08:47:04;4.60;99.90
37998;DHT22;24079;51.824;4.682;2023-01-29T08:49:30;4.60;99.90
37998;DHT22;24079;51.824;4.682;2023-01-29T08:51:56;4.60;99.90
37998;DHT22;24079;51.824;4.682;2023-01-29T08:54:22;4.60;99.90
37998;DHT22;24079;51.824;4.682;2023-01-29T08:56:49;4.60;99.90
37998;DHT22;24079;51.824;4.682;2023-01-29T08:59:15;4.70;99.90
37998;DHT22;24079;51.824;4.682;2023-01-29T09:01:41;4.60;99.90
37998;DHT22;24079;51.824;4.682;2023-01-29T09:04:07;4.70;99.90
37998;DHT22;24079;51.824;4.682;2023-01-29T09:06:34;4.70;99.90
37998;DHT22;24079;51.824;4.682;2023-01-29T09:09:00;4.60;99.90
37998;DHT22;24079;51.824;4.682;2023-01-29T09:11:26;4.60;99.90
37998;DHT22;24079;51.824;4.682;2023-01-29T09:13:52;4.70;99.90
37998;DHT22;24079;51.824;4.682;2023-01-29T09:16:18;4.70;99.90
37998;DHT22;24079;51.824;4.682;2023-01-29T09:18:44;4.70;99.90
37998;DHT22;24079;51.824;4.682;2023-01-29T09:21:10;4.70;99.90
37998;DHT22;24079;51.824;4.682;2023-01-29T09:23:36;4.80;99.90
37998;DHT22;24079;51.824;4.682;2023-01-29T09:26:02;4.80;99.90
37998;DHT22;24079;51.824;4.682;2023-01-29T09:28:28;4.80;99.90
37998;DHT22;24079;51.824;4.682;2023-01-29T09:30:54;4.90;99.90
37998;DHT22;24079;51.824;4.682;2023-01-29T09:33:19;4.90;99.90
37998;DHT22;24079;51.824;4.682;2023-01-29T09:35:45;4.80;99.90
37998;DHT22;24079;51.824;4.682;2023-01-29T09:38:12;4.90;99.90
37998;DHT22;24079;51.824;4.682;2023-01-29T09:40:59;4.90;99.90
37998;DHT22;24079;51.824;4.682;2023-01-29T09:43:48;5.00;99.90
37998;DHT22;24079;51.824;4.682;2023-01-29T09:46:22;4.90;99.90
37998;DHT22;24079;51.824;4.682;2023-01-29T09:49:02;4.90;99.90
37998;DHT22;24079;51.824;4.682;2023-01-29T09:51:33;5.00;99.90
37998;DHT22;24079;51.824;4.682;2023-01-29T09:56:37;5.00;99.90
37998;DHT22;24079;51.824;4.682;2023-01-29T09:59:03;5.10;99.90
37998;DHT22;24079;51.824;4.682;2023-01-29T10:01:58;5.10;99.90
37998;DHT22;24079;51.824;4.682;2023-01-29T10:04:39;5.10;99.90
37998;DHT22;24079;51.824;4.682;2023-01-29T10:10:17;5.10;99.90
37998;DHT22;24079;51.824;4.682;2023-01-29T10:13:05;5.10;99.90
37998;DHT22;24079;51.824;4.682;2023-01-29T10:19:53;5.10;99.90
37998;DHT22;24079;51.824;4.682;2023-01-29T10:25:04;5.10;99.90
37998;DHT22;24079;51.824;4.682;2023-01-29T10:27:33;5.10;99.90
37998;DHT22;24079;51.824;4.682;2023-01-29T10:30:02;5.30;99.90
37998;DHT22;24079;51.824;4.682;2023-01-29T10:32:28;5.30;99.90
37998;DHT22;24079;51.824;4.682;2023-01-29T10:35:00;5.30;99.90
37998;DHT22;24079;51.824;4.682;2023-01-29T10:37:37;5.30;99.90
37998;DHT22;24079;51.824;4.682;2023-01-29T10:40:20;5.40;99.90
37998;DHT22;24079;51.824;4.682;2023-01-29T10:42:55;5.40;99.90
37998;DHT22;24079;51.824;4.682;2023-01-29T10:45:34;5.50;99.90
37998;DHT22;24079;51.824;4.682;2023-01-29T10:48:41;5.40;99.90
37998;DHT22;24079;51.824;4.682;2023-01-29T10:51:21;5.40;99.90
37998;DHT22;24079;51.824;4.682;2023-01-29T10:59:50;5.40;99.90
37998;DHT22;24079;51.824;4.682;2023-01-29T11:02:20;5.40;99.90
37998;DHT22;24079;51.824;4.682;2023-01-29T11:04:47;5.50;99.90
37998;DHT22;24079;51.824;4.682;2023-01-29T11:07:16;5.50;99.90
37998;DHT22;24079;51.824;4.682;2023-01-29T11:10:06;5.50;99.90
37998;DHT22;24079;51.824;4.682;2023-01-29T11:12:34;5.60;99.90
37998;DHT22;24079;51.824;4.682;2023-01-29T11:15:15;5.60;99.90
37998;DHT22;24079;51.824;4.682;2023-01-29T11:18:02;5.60;99.90
37998;DHT22;24079;51.824;4.682;2023-01-29T11:20:29;5.60;99.90
37998;DHT22;24079;51.824;4.682;2023-01-29T11:22:55;5.60;99.90
37998;DHT22;24079;51.824;4.682;2023-01-29T11:25:23;5.60;99.90
37998;DHT22;24079;51.824;4.682;2023-01-29T11:27:53;5.60;99.90
37998;DHT22;24079;51.824;4.682;2023-01-29T11:30:29;5.70;99.90
37998;DHT22;24079;51.824;4.682;2023-01-29T11:33:08;5.70;99.90
37998;DHT22;24079;51.824;4.682;2023-01-29T11:35:35;5.70;99.90
37998;DHT22;24079;51.824;4.682;2023-01-29T11:40:42;5.70;99.90
37998;DHT22;24079;51.824;4.682;2023-01-29T11:43:27;5.70;99.90
37998;DHT22;24079;51.824;4.682;2023-01-29T11:46:01;5.70;99.90
37998;DHT22;24079;51.824;4.682;2023-01-29T11:48:44;5.60;99.90
37998;DHT22;24079;51.824;4.682;2023-01-29T11:51:22;5.70;99.90
37998;DHT22;24079;51.824;4.682;2023-01-29T11:53:52;5.70;99.90
37998;DHT22;24079;51.824;4.682;2023-01-29T11:56:27;5.70;99.90
37998;DHT22;24079;51.824;4.682;2023-01-29T11:58:55;5.70;99.90
37998;DHT22;24079;51.824;4.682;2023-01-29T12:01:35;5.60;99.90
37998;DHT22;24079;51.824;4.682;2023-01-29T12:04:08;5.70;99.90
37998;DHT22;24079;51.824;4.682;2023-01-29T12:06:41;5.60;99.90
37998;DHT22;24079;51.824;4.682;2023-01-29T12:09:17;5.60;99.90
37998;DHT22;24079;51.824;4.682;2023-01-29T12:11:44;5.60;99.90
37998;DHT22;24079;51.824;4.682;2023-01-29T12:16:53;5.60;99.90
37998;DHT22;24079;51.824;4.682;2023-01-29T12:19:30;5.70;99.90
37998;DHT22;24079;51.824;4.682;2023-01-29T12:22:39;5.70;99.90
37998;DHT22;24079;51.824;4.682;2023-01-29T12:25:29;5.60;99.90
37998;DHT22;24079;51.824;4.682;2023-01-29T12:28:16;5.60;99.90
37998;DHT22;24079;51.824;4.682;2023-01-29T12:33:52;5.60;99.90
37998;DHT22;24079;51.824;4.682;2023-01-29T12:36:58;5.70;99.90
37998;DHT22;24079;51.824;4.682;2023-01-29T12:39:26;5.70;99.90
37998;DHT22;24079;51.824;4.682;2023-01-29T12:41:58;5.70;99.90
37998;DHT22;24079;51.824;4.682;2023-01-29T12:44:30;5.70;99.90
37998;DHT22;24079;51.824;4.682;2023-01-29T12:47:00;5.70;99.90
37998;DHT22;24079;51.824;4.682;2023-01-29T12:49:31;5.70;99.90
37998;DHT22;24079;51.824;4.682;2023-01-29T12:52:08;5.70;99.90
37998;DHT22;24079;51.824;4.682;2023-01-29T12:54:52;5.80;99.90
37998;DHT22;24079;51.824;4.682;2023-01-29T12:57:32;5.80;99.90
37998;DHT22;24079;51.824;4.682;2023-01-29T13:00:04;5.90;99.90
37998;DHT22;24079;51.824;4.682;2023-01-29T13:02:36;6.00;99.90
37998;DHT22;24079;51.824;4.682;2023-01-29T13:05:04;6.00;99.90
37998;DHT22;24079;51.824;4.682;2023-01-29T13:07:36;6.10;99.90
37998;DHT22;24079;51.824;4.682;2023-01-29T13:10:13;6.10;99.90
37998;DHT22;24079;51.824;4.682;2023-01-29T13:12:54;6.10;99.90
37998;DHT22;24079;51.824;4.682;2023-01-29T13:15:27;6.10;99.90
37998;DHT22;24079;51.824;4.682;2023-01-29T13:21:03;6.10;99.90
37998;DHT22;24079;51.824;4.682;2023-01-29T13:23:38;6.10;99.90
37998;DHT22;24079;51.824;4.682;2023-01-29T13:26:06;6.20;99.90
37998;DHT22;24079;51.824;4.682;2023-01-29T13:28:33;6.10;99.90
37998;DHT22;24079;51.824;4.682;2023-01-29T13:31:35;6.10;99.90
37998;DHT22;24079;51.824;4.682;2023-01-29T13:34:15;6.10;99.90
37998;DHT22;24079;51.824;4.682;2023-01-29T13:36:50;6.10;99.90
37998;DHT22;24079;51.824;4.682;2023-01-29T13:41:52;6.00;99.90
37998;DHT22;24079;51.824;4.682;2023-01-29T13:44:27;6.10;99.90
37998;DHT22;24079;51.824;4.682;2023-01-29T13:47:20;6.10;99.90
37998;DHT22;24079;51.824;4.682;2023-01-29T13:50:12;6.20;99.90
37998;DHT22;24079;51.824;4.682;2023-01-29T13:52:53;6.20;99.90
37998;DHT22;24079;51.824;4.682;2023-01-29T13:55:39;6.20;99.90
37998;DHT22;24079;51.824;4.682;2023-01-29T13:59:08;6.20;99.90
37998;DHT22;24079;51.824;4.682;2023-01-29T14:01:01;6.20;99.90
37998;DHT22;24079;51.824;4.682;2023-01-29T14:13:49;6.20;99.90
37998;DHT22;24079;51.824;4.682;2023-01-29T14:18:49;6.30;99.90
37998;DHT22;24079;51.824;4.682;2023-01-29T14:21:25;6.30;99.90
37998;DHT22;24079;51.824;4.682;2023-01-29T14:36:46;6.20;99.90
37998;DHT22;24079;51.824;4.682;2023-01-29T14:39:34;6.20;99.90
37998;DHT22;24079;51.824;4.682;2023-01-29T14:42:04;6.10;99.90
37998;DHT22;24079;51.824;4.682;2023-01-29T14:55:37;6.00;99.90
37998;DHT22;24079;51.824;4.682;2023-01-29T14:58:05;6.00;99.90
37998;DHT22;24079;51.824;4.682;2023-01-29T15:00:39;6.00;99.90
37998;DHT22;24079;51.824;4.682;2023-01-29T15:06:06;6.10;99.90
37998;DHT22;24079;51.824;4.682;2023-01-29T15:08:39;6.00;99.90
37998;DHT22;24079;51.824;4.682;2023-01-29T15:11:14;6.00;99.90
37998;DHT22;24079;51.824;4.682;2023-01-29T15:14:12;6.00;99.90
37998;DHT22;24079;51.824;4.682;2023-01-29T15:16:47;6.00;99.90
37998;DHT22;24079;51.824;4.682;2023-01-29T15:19:30;6.00;99.90
37998;DHT22;24079;51.824;4.682;2023-01-29T15:22:08;6.00;99.90
37998;DHT22;24079;51.824;4.682;2023-01-29T15:24:35;6.00;99.90
37998;DHT22;24079;51.824;4.682;2023-01-29T15:27:01;6.00;99.90
37998;DHT22;24079;51.824;4.682;2023-01-29T15:29:28;6.00;99.90
37998;DHT22;24079;51.824;4.682;2023-01-29T15:31:55;6.00;99.90
37998;DHT22;24079;51.824;4.682;2023-01-29T15:34:21;6.00;99.90
37998;DHT22;24079;51.824;4.682;2023-01-29T15:36:48;5.90;99.90
37998;DHT22;24079;51.824;4.682;2023-01-29T15:39:22;5.90;99.90
37998;DHT22;24079;51.824;4.682;2023-01-29T15:41:50;5.90;99.90
37998;DHT22;24079;51.824;4.682;2023-01-29T15:44:28;5.80;99.90
37998;DHT22;24079;51.824;4.682;2023-01-29T15:46:59;5.80;99.90
37998;DHT22;24079;51.824;4.682;2023-01-29T15:49:31;5.70;99.90
37998;DHT22;24079;51.824;4.682;2023-01-29T15:52:03;5.70;99.90
37998;DHT22;24079;51.824;4.682;2023-01-29T15:54:31;5.70;99.90
37998;DHT22;24079;51.824;4.682;2023-01-29T15:56:59;5.70;99.90
37998;DHT22;24079;51.824;4.682;2023-01-29T15:59:30;5.70;99.90
37998;DHT22;24079;51.824;4.682;2023-01-29T16:02:25;5.60;99.90
37998;DHT22;24079;51.824;4.682;2023-01-29T16:04:54;5.60;99.90
37998;DHT22;24079;51.824;4.682;2023-01-29T16:07:20;5.60;99.90
37998;DHT22;24079;51.824;4.682;2023-01-29T16:09:47;5.60;99.90
37998;DHT22;24079;51.824;4.682;2023-01-29T16:12:13;5.60;99.90
37998;DHT22;24079;51.824;4.682;2023-01-29T16:14:40;5.50;99.90
37998;DHT22;24079;51.824;4.682;2023-01-29T16:17:30;5.50;99.90
37998;DHT22;24079;51.824;4.682;2023-01-29T16:20:02;5.50;99.90
37998;DHT22;24079;51.824;4.682;2023-01-29T16:22:32;5.50;99.90
37998;DHT22;24079;51.824;4.682;2023-01-29T16:25:07;5.60;99.90
37998;DHT22;24079;51.824;4.682;2023-01-29T16:27:37;5.50;99.90
37998;DHT22;24079;51.824;4.682;2023-01-29T16:30:04;5.60;99.90
37998;DHT22;24079;51.824;4.682;2023-01-29T16:32:30;5.60;99.90
37998;DHT22;24079;51.824;4.682;2023-01-29T16:34:58;5.60;99.90
37998;DHT22;24079;51.824;4.682;2023-01-29T16:37:29;5.60;99.90
37998;DHT22;24079;51.824;4.682;2023-01-29T16:39:56;5.70;99.90
37998;DHT22;24079;51.824;4.682;2023-01-29T16:42:29;5.70;99.90
37998;DHT22;24079;51.824;4.682;2023-01-29T16:45:04;5.70;99.90
37998;DHT22;24079;51.824;4.682;2023-01-29T16:47:35;5.70;99.90
37998;DHT22;24079;51.824;4.682;2023-01-29T16:52:30;5.60;99.90
37998;DHT22;24079;51.824;4.682;2023-01-29T16:57:38;5.60;99.90
37998;DHT22;24079;51.824;4.682;2023-01-29T17:00:18;5.60;99.90
37998;DHT22;24079;51.824;4.682;2023-01-29T17:02:45;5.60;99.90
37998;DHT22;24079;51.824;4.682;2023-01-29T17:05:28;5.70;99.90
37998;DHT22;24079;51.824;4.682;2023-01-29T17:07:56;5.60;99.90
37998;DHT22;24079;51.824;4.682;2023-01-29T17:10:28;5.50;99.90
37998;DHT22;24079;51.824;4.682;2023-01-29T17:13:01;5.50;99.90
37998;DHT22;24079;51.824;4.682;2023-01-29T17:18:23;5.60;99.90
37998;DHT22;24079;51.824;4.682;2023-01-29T17:20:50;5.50;99.90
37998;DHT22;24079;51.824;4.682;2023-01-29T17:23:18;5.50;99.90
37998;DHT22;24079;51.824;4.682;2023-01-29T17:25:44;5.50;99.90
37998;DHT22;24079;51.824;4.682;2023-01-29T17:28:14;5.50;99.90
37998;DHT22;24079;51.824;4.682;2023-01-29T17:30:41;5.60;99.90
37998;DHT22;24079;51.824;4.682;2023-01-29T17:33:11;5.50;99.90
37998;DHT22;24079;51.824;4.682;2023-01-29T17:35:38;5.50;99.90
37998;DHT22;24079;51.824;4.682;2023-01-29T17:38:04;5.50;99.90
37998;DHT22;24079;51.824;4.682;2023-01-29T17:43:16;5.60;99.90
37998;DHT22;24079;51.824;4.682;2023-01-29T17:45:41;5.60;99.90
37998;DHT22;24079;51.824;4.682;2023-01-29T17:48:23;5.60;99.90
37998;DHT22;24079;51.824;4.682;2023-01-29T17:50:50;5.60;99.90
37998;DHT22;24079;51.824;4.682;2023-01-29T17:53:18;5.60;99.90
37998;DHT22;24079;51.824;4.682;2023-01-29T17:55:44;5.60;99.90
37998;DHT22;24079;51.824;4.682;2023-01-29T17:58:17;5.60;99.90
37998;DHT22;24079;51.824;4.682;2023-01-29T18:00:43;5.50;99.90
37998;DHT22;24079;51.824;4.682;2023-01-29T18:03:09;5.50;99.90
37998;DHT22;24079;51.824;4.682;2023-01-29T18:05:34;5.50;99.90
37998;DHT22;24079;51.824;4.682;2023-01-29T18:08:00;5.60;99.90
37998;DHT22;24079;51.824;4.682;2023-01-29T18:10:27;5.60;99.90
37998;DHT22;24079;51.824;4.682;2023-01-29T18:12:52;5.60;99.90
37998;DHT22;24079;51.824;4.682;2023-01-29T18:15:18;5.50;99.90
37998;DHT22;24079;51.824;4.682;2023-01-29T18:17:44;5.60;99.90
37998;DHT22;24079;51.824;4.682;2023-01-29T18:20:21;5.50;99.90
37998;DHT22;24079;51.824;4.682;2023-01-29T18:22:48;5.40;99.90